Time;durP1;ratioP1;P1;durP2;ratioP2;P2;SDS_P1;SDS_P2;PMS_P1;PMS_P2;Temp;Humidity;BMP_temperature;BMP_pressure;BME280_temperature;BME280_humidity;BME280_pressure;Samples;Min_cycle;Max_cycle;Signal;HPM_P1;HPM_P2
2023/06/28 00:00:19;;;;;;;8.13;1.67;;;19.70;90.50;;;20.48;72.23;98322.94;4966373;28;21176;-85
2023/06/28 00:02:50;;;;;;;4.67;1.87;;;19.70;90.50;;;20.46;72.76;98315.22;4964931;28;20464;-85
2023/06/28 00:05:18;;;;;;;5.60;1.63;;;19.70;90.40;;;20.44;73.12;98319.94;4965185;28;20495;-85
2023/06/28 00:07:47;;;;;;;3.30;2.03;;;19.70;90.70;;;20.44;73.13;98313.84;4959764;28;20541;-84
2023/06/28 00:10:16;;;;;;;2.90;1.77;;;19.70;90.70;;;20.44;73.34;98317.28;4960820;28;20481;-85
2023/06/28 00:12:45;;;;;;;3.77;1.40;;;19.60;90.90;;;20.41;73.63;98312.47;4959191;28;20468;-85
2023/06/28 00:15:14;;;;;;;3.53;1.70;;;19.60;90.90;;;20.40;74.45;98316.19;4959342;28;21546;-86
2023/06/28 00:17:43;;;;;;;4.17;1.83;;;19.60;91.30;;;20.40;75.13;98315.38;4963365;28;21022;-85
2023/06/28 00:20:13;;;;;;;5.10;2.07;;;19.60;91.30;;;20.37;75.89;98316.69;4959861;28;20476;-85
2023/06/28 00:22:42;;;;;;;4.97;2.03;;;19.60;91.50;;;20.31;76.69;98322.94;4959185;28;20465;-85
2023/06/28 00:25:11;;;;;;;7.27;1.80;;;19.60;91.50;;;20.25;77.08;98315.13;4962377;28;20500;-84
2023/06/28 00:27:39;;;;;;;3.03;1.60;;;19.50;91.60;;;20.19;77.36;98319.56;4964792;28;21231;-85
2023/06/28 00:30:13;;;;;;;3.70;1.87;;;19.50;91.50;;;20.19;77.43;98314.25;4961979;28;20509;-85
2023/06/28 00:32:42;;;;;;;4.30;1.70;;;19.40;91.60;;;20.24;77.13;98311.66;4963969;28;20468;-85
2023/06/28 00:35:12;;;;;;;4.40;1.87;;;19.40;91.60;;;20.25;77.17;98313.25;4964969;28;20975;-85
2023/06/28 00:37:42;;;;;;;4.00;1.70;;;19.40;91.70;;;20.22;77.51;98319.06;4964195;28;20473;-85
2023/06/28 00:40:11;;;;;;;4.40;1.80;;;19.40;91.70;;;20.18;78.78;98309.97;4964747;28;20472;-85
2023/06/28 00:42:40;;;;;;;3.80;1.50;;;19.40;92.30;;;20.16;81.04;98311.25;4961669;28;20492;-85
2023/06/28 00:45:14;;;;;;;5.30;2.40;;;19.40;92.70;;;20.12;83.75;98318.91;4966130;28;20503;-85
2023/06/28 00:47:45;;;;;;;3.27;1.93;;;19.30;93.50;;;20.06;86.16;98317.22;4962176;28;20988;-85
2023/06/28 00:50:16;;;;;;;5.30;2.00;;;19.30;94.00;;;19.99;88.19;98320.00;4964017;28;20497;-84
2023/06/28 00:52:45;;;;;;;4.30;2.00;;;19.20;94.30;;;19.92;90.48;98319.34;4963520;28;20464;-85
2023/06/28 00:55:15;;;;;;;6.70;2.30;;;19.20;94.90;;;19.87;92.00;98327.25;4965776;28;20468;-85
2023/06/28 00:57:45;;;;;;;3.80;1.90;;;19.20;95.60;;;19.83;95.41;98330.63;4963463;28;20473;-85
2023/06/28 01:00:17;;;;;;;6.37;2.07;;;19.10;95.90;;;19.70;97.87;98321.13;4965104;28;20463;-85
2023/06/28 01:02:45;;;;;;;6.83;2.23;;;19.00;96.10;;;19.59;100.00;98325.44;4961754;28;20479;-85
2023/06/28 01:05:19;;;;;;;6.07;2.00;;;19.00;96.20;;;19.51;100.00;98328.44;4963052;28;20573;-85
2023/06/28 01:07:51;;;;;;;7.37;2.33;;;18.90;96.50;;;19.53;100.00;98329.03;4961602;28;20488;-85
2023/06/28 01:10:20;;;;;;;3.03;1.77;;;18.80;96.40;;;19.45;100.00;98325.94;4961182;28;20476;-85
2023/06/28 01:12:51;;;;;;;3.33;2.30;;;18.80;96.50;;;19.37;100.00;98327.09;4958864;28;20487;-84
2023/06/28 01:15:21;;;;;;;6.57;2.20;;;18.70;96.70;;;19.37;100.00;98332.41;4964335;28;20480;-85
2023/06/28 01:17:51;;;;;;;7.10;2.00;;;18.70;97.00;;;19.36;100.00;98338.75;4959144;28;20474;-84
2023/06/28 01:20:22;;;;;;;3.20;1.77;;;18.60;97.30;;;19.35;100.00;98328.38;4962953;28;22168;-85
2023/06/28 01:22:57;;;;;;;5.40;2.13;;;18.60;97.30;;;19.34;100.00;98327.56;4959546;28;20897;-85
2023/06/28 01:25:25;;;;;;;4.30;1.80;;;18.60;97.60;;;19.35;100.00;98328.38;4962011;28;20463;-85
2023/06/28 01:27:55;;;;;;;5.73;1.70;;;18.60;97.80;;;19.33;100.00;98333.91;4964236;28;20477;-85
2023/06/28 01:30:25;;;;;;;6.97;2.10;;;18.50;98.00;;;19.25;100.00;98344.91;4961058;28;20983;-85
2023/06/28 01:32:54;;;;;;;5.47;2.00;;;18.50;98.20;;;19.15;100.00;98338.59;4964030;28;20483;-85
2023/06/28 01:35:24;;;;;;;3.20;1.30;;;18.40;98.20;;;19.13;100.00;98345.94;4961352;28;20465;-85
2023/06/28 01:37:56;;;;;;;10.80;2.30;;;18.40;98.60;;;19.10;100.00;98339.28;4964505;28;20468;-85
2023/06/28 01:40:27;;;;;;;3.00;1.87;;;18.40;98.40;;;19.03;100.00;98341.25;4962650;28;20472;-85
2023/06/28 01:42:56;;;;;;;6.23;2.20;;;18.30;98.50;;;18.98;100.00;98338.50;4961982;28;20500;-85
2023/06/28 01:45:25;;;;;;;8.50;1.97;;;18.30;98.90;;;18.95;100.00;98334.47;4962781;28;20491;-84
2023/06/28 01:47:54;;;;;;;8.00;2.20;;;18.20;98.90;;;18.93;100.00;98335.75;4962679;28;20504;-85
2023/06/28 01:50:23;;;;;;;4.90;1.70;;;18.20;99.20;;;18.94;100.00;98332.06;4962866;28;20469;-85
2023/06/28 01:52:52;;;;;;;6.40;1.90;;;18.20;99.50;;;19.00;100.00;98344.38;4963802;28;20472;-85
2023/06/28 01:55:22;;;;;;;8.97;2.60;;;18.20;99.40;;;19.05;100.00;98345.28;4963810;28;20461;-85
2023/06/28 01:57:51;;;;;;;7.07;2.70;;;18.20;99.40;;;19.00;100.00;98345.19;4961101;28;20460;-85
2023/06/28 02:00:21;;;;;;;2.30;1.40;;;18.20;99.20;;;19.00;100.00;98347.03;4963810;28;20477;-85
2023/06/28 02:02:50;;;;;;;4.27;1.80;;;18.20;99.30;;;19.01;100.00;98346.00;4958417;28;20513;-85
2023/06/28 02:05:19;;;;;;;5.20;2.33;;;18.10;99.40;;;19.07;100.00;98353.00;4957448;28;20468;-86
2023/06/28 02:07:48;;;;;;;6.43;3.40;;;18.20;99.30;;;19.08;100.00;98341.38;4960474;28;20841;-85
2023/06/28 02:10:18;;;;;;;10.80;2.43;;;18.10;99.20;;;19.12;100.00;98347.81;4958859;28;20899;-85
2023/06/28 02:12:48;;;;;;;2.83;1.83;;;18.10;99.10;;;19.05;100.00;98349.78;4959571;28;20480;-85
2023/06/28 02:15:17;;;;;;;5.53;2.27;;;18.20;99.20;;;19.01;100.00;98343.34;4961453;28;20481;-84
2023/06/28 02:17:47;;;;;;;2.70;1.80;;;18.20;99.10;;;18.92;100.00;98334.94;4958485;28;20504;-85
2023/06/28 02:20:16;;;;;;;3.00;1.90;;;18.10;99.00;;;18.83;100.00;98333.69;4964220;28;20497;-85
2023/06/28 02:22:46;;;;;;;3.70;1.80;;;18.00;99.40;;;18.80;100.00;98330.69;4962011;28;20494;-85
2023/06/28 02:25:15;;;;;;;4.40;1.90;;;18.10;99.30;;;18.80;100.00;98338.66;4961460;28;22270;-85
2023/06/28 02:27:44;;;;;;;5.40;2.20;;;18.00;99.70;;;18.84;100.00;98331.84;4963484;28;20466;-85
2023/06/28 02:30:14;;;;;;;4.00;2.17;;;18.00;99.60;;;18.80;100.00;98331.50;4962082;28;21010;-85
2023/06/28 02:32:43;;;;;;;5.10;1.93;;;18.00;99.60;;;18.81;100.00;98329.66;4963766;28;20553;-85
2023/06/28 02:35:17;;;;;;;3.13;2.37;;;18.00;99.90;;;18.78;100.00;98336.22;4964443;28;20476;-92
2023/06/28 02:37:47;;;;;;;5.70;2.70;;;18.00;99.80;;;18.78;100.00;98335.44;4969937;28;20543;-84
2023/06/28 02:40:15;;;;;;;4.07;1.93;;;18.00;99.70;;;18.78;100.00;98338.88;4961531;28;20987;-85
2023/06/28 02:42:44;;;;;;;3.60;1.80;;;18.00;99.80;;;18.81;100.00;98345.56;4960212;28;20500;-86
2023/06/28 02:45:14;;;;;;;3.60;2.10;;;18.00;99.70;;;18.78;100.00;98348.69;4961103;28;21130;-85
2023/06/28 02:47:43;;;;;;;3.60;2.13;;;18.00;99.40;;;18.76;100.00;98348.09;4962385;28;21017;-85
2023/06/28 02:50:11;;;;;;;10.87;2.20;;;17.90;99.30;;;18.80;100.00;98346.59;4954088;28;20474;-85
2023/06/28 02:52:41;;;;;;;5.30;1.90;;;17.90;99.60;;;18.81;100.00;98343.69;4958216;28;21219;-86
2023/06/28 02:55:12;;;;;;;4.77;2.50;;;18.00;99.60;;;18.80;100.00;98346.59;4977366;28;20446;-92
2023/06/28 02:57:41;;;;;;;4.73;2.30;;;18.00;99.80;;;18.81;100.00;98343.69;4957973;28;20949;-88
2023/06/28 03:00:14;;;;;;;6.80;2.27;;;18.00;99.70;;;18.84;100.00;98348.56;4960499;28;20477;-88
2023/06/28 03:02:45;;;;;;;5.43;2.10;;;18.00;99.60;;;18.85;100.00;98344.03;4961475;28;20503;-86
2023/06/28 03:05:14;;;;;;;4.60;2.10;;;18.00;99.70;;;18.86;100.00;98340.34;4961384;28;20475;-86
2023/06/28 03:07:43;;;;;;;3.60;1.97;;;18.00;99.70;;;18.87;100.00;98342.78;4963178;28;20481;-86
2023/06/28 03:10:13;;;;;;;6.13;1.83;;;18.00;99.70;;;18.84;100.00;98337.97;4961066;28;20510;-87
2023/06/28 03:12:41;;;;;;;2.97;1.70;;;18.00;99.60;;;18.83;100.00;98343.47;4955387;28;20504;-87
2023/06/28 03:15:11;;;;;;;9.10;2.90;;;18.00;99.70;;;18.83;100.00;98340.84;4973784;28;20472;-91
2023/06/28 03:17:40;;;;;;;4.83;2.23;;;18.00;99.70;;;18.79;100.00;98348.44;4969641;28;20992;-87
2023/06/28 03:20:12;;;;;;;4.70;2.10;;;18.00;99.70;;;18.78;100.00;98341.50;4961562;28;20542;-87
2023/06/28 03:22:41;;;;;;;6.93;1.90;;;17.90;99.40;;;18.70;100.00;98335.78;4961140;28;20500;-89
2023/06/28 03:25:11;;;;;;;5.23;2.00;;;17.90;98.80;;;18.72;100.00;98333.69;4959168;28;21105;-86
2023/06/28 03:27:40;;;;;;;14.80;6.20;;;17.90;99.10;;;18.70;100.00;98330.47;4965660;28;20479;-91
2023/06/28 03:30:10;;;;;;;3.67;2.43;;;17.90;99.10;;;18.69;100.00;98334.16;4978101;28;20470;-87
2023/06/28 03:32:39;;;;;;;6.40;2.30;;;17.90;99.30;;;18.69;100.00;98334.16;4961190;28;20491;-87
2023/06/28 03:35:10;;;;;;;4.23;2.20;;;17.90;99.70;;;18.67;100.00;98339.72;4962258;28;20571;-86
2023/06/28 03:37:39;;;;;;;3.27;1.70;;;17.90;99.70;;;18.69;100.00;98331.50;4962933;28;21026;-86
2023/06/28 03:40:09;;;;;;;3.20;2.00;;;17.90;99.60;;;18.65;100.00;98331.16;4961704;28;20483;-86
2023/06/28 03:42:37;;;;;;;7.50;2.50;;;17.90;99.80;;;18.62;100.00;98338.75;4962759;28;20504;-86
2023/06/28 03:45:08;;;;;;;4.77;2.00;;;17.80;99.90;;;18.63;100.00;98335.09;4958680;28;20464;-86
2023/06/28 03:47:37;;;;;;;4.10;1.87;;;17.80;99.60;;;18.67;100.00;98334.41;4963903;28;20469;-86
2023/06/28 03:50:10;;;;;;;7.67;2.13;;;17.80;99.70;;;18.65;100.00;98335.66;4962384;28;20526;-86
2023/06/28 03:52:39;;;;;;;4.83;2.10;;;17.80;99.50;;;18.55;100.00;98339.69;4973037;28;20453;-92
2023/06/28 03:55:09;;;;;;;8.47;4.23;;;17.80;99.70;;;18.53;100.00;98331.16;4974381;28;20515;-87
2023/06/28 03:57:38;;;;;;;5.73;1.80;;;17.80;99.90;;;18.54;100.00;98337.25;4962323;28;20519;-87
2023/06/28 04:00:11;;;;;;;6.30;2.00;;;17.80;99.60;;;18.53;100.00;98331.16;4963238;28;20850;-85
2023/06/28 04:02:41;;;;;;;5.33;2.20;;;17.80;99.70;;;18.53;100.00;98331.16;4963724;28;20856;-86
2023/06/28 04:05:12;;;;;;;2.60;1.80;;;17.70;99.60;;;18.51;100.00;98327.94;4964320;28;20483;-84
2023/06/28 04:07:42;;;;;;;4.67;2.23;;;17.80;99.80;;;18.57;100.00;98334.97;4959440;28;20755;-85
2023/06/28 04:10:13;;;;;;;6.90;2.13;;;17.70;99.80;;;18.60;100.00;98328.41;4962275;28;20837;-85
2023/06/28 04:12:43;;;;;;;8.73;1.97;;;17.80;99.80;;;18.63;100.00;98330.59;4959136;28;20476;-85
2023/06/28 04:15:12;;;;;;;3.30;2.27;;;17.80;99.90;;;18.64;100.00;98331.41;4963949;28;20473;-86
2023/06/28 04:17:41;;;;;;;4.77;2.00;;;17.80;99.80;;;18.64;100.00;98336.72;4963162;28;20477;-85
2023/06/28 04:20:12;;;;;;;7.43;2.40;;;17.80;99.80;;;18.63;100.00;98329.78;4964202;28;20894;-85
2023/06/28 04:22:41;;;;;;;4.50;2.20;;;17.80;99.90;;;18.62;100.00;98328.16;4965737;28;20492;-86
2023/06/28 04:25:10;;;;;;;4.03;1.80;;;17.80;99.50;;;18.58;100.00;98327.81;4961427;28;20477;-85
2023/06/28 04:27:39;;;;;;;5.67;1.90;;;17.80;99.00;;;18.54;100.00;98338.06;4960610;28;20468;-85
2023/06/28 04:30:10;;;;;;;2.90;1.73;;;17.80;99.20;;;18.52;100.00;98329.56;4960549;28;20471;-85
2023/06/28 04:32:39;;;;;;;5.53;2.13;;;17.80;99.10;;;18.51;100.00;98337.72;4959004;28;20481;-83
2023/06/28 04:35:13;;;;;;;5.37;2.20;;;17.70;99.00;;;18.49;100.00;98335.31;4976121;28;20918;-86
2023/06/28 04:37:43;;;;;;;3.77;1.80;;;17.70;99.20;;;18.44;100.00;98331.72;4960558;28;20501;-86
2023/06/28 04:40:16;;;;;;;3.30;2.00;;;17.80;98.80;;;18.46;100.00;98333.13;4961029;28;20473;-86
2023/06/28 04:42:44;;;;;;;3.30;1.80;;;17.70;99.00;;;18.45;100.00;98339.44;4964037;28;21102;-86
2023/06/28 04:45:36;;;;;;;1.97;1.43;;;17.70;98.80;;;18.50;100.00;98342.22;4964860;28;20508;-85
2023/06/28 04:48:07;;;;;;;3.70;1.90;;;17.70;98.90;;;18.58;100.00;98339.22;4966653;28;20461;-86
2023/06/28 04:50:39;;;;;;;3.77;1.90;;;17.70;98.90;;;18.61;100.00;98337.97;4964275;28;20812;-86
2023/06/28 04:53:08;;;;;;;5.57;1.80;;;17.70;98.90;;;18.63;100.00;98340.38;4963767;28;20522;-86
2023/06/28 04:55:37;;;;;;;13.53;1.70;;;17.80;98.90;;;18.68;100.00;98341.28;4963614;28;20530;-86
2023/06/28 04:58:08;;;;;;;5.80;2.20;;;17.80;99.00;;;18.73;100.00;98345.91;4967020;28;20972;-86
2023/06/28 05:00:38;;;;;;;6.00;2.00;;;17.80;99.00;;;18.72;100.00;98337.16;4964980;28;20472;-86
2023/06/28 05:03:15;;;;;;;5.60;2.20;;;17.80;99.10;;;18.74;100.00;98336.94;4964338;28;20497;-84
2023/06/28 05:05:47;;;;;;;2.90;1.63;;;17.90;98.90;;;18.77;100.00;98331.16;4968948;28;20457;-86
2023/06/28 05:08:16;;;;;;;9.80;2.07;;;17.90;99.00;;;18.75;100.00;98339.34;4969469;28;20905;-86
2023/06/28 05:10:46;;;;;;;4.33;1.70;;;17.90;99.00;;;18.75;100.00;98341.97;4967815;28;20467;-86
2023/06/28 05:13:19;;;;;;;5.70;2.17;;;17.90;99.10;;;18.77;100.00;98333.81;4970265;28;20499;-86
2023/06/28 05:15:49;;;;;;;5.47;2.40;;;17.90;99.00;;;18.80;100.00;98331.50;4966636;28;20507;-86
2023/06/28 05:18:18;;;;;;;3.03;1.77;;;17.90;99.00;;;18.81;100.00;98332.31;4971272;28;20520;-86
2023/06/28 05:20:49;;;;;;;2.90;1.63;;;18.00;99.00;;;18.83;100.00;98338.19;4964315;28;20505;-85
2023/06/28 05:23:21;;;;;;;4.60;2.30;;;18.00;99.10;;;18.88;100.00;98339.09;4964873;28;21078;-86
2023/06/28 05:25:51;;;;;;;3.97;1.97;;;18.00;99.20;;;18.90;100.00;98346.81;4967687;28;20488;-85
2023/06/28 05:28:20;;;;;;;2.57;1.63;;;18.00;99.20;;;18.96;100.00;98341.38;4968254;28;20829;-86
2023/06/28 05:30:49;;;;;;;3.20;1.90;;;18.10;99.30;;;19.00;100.00;98347.03;4965255;28;20466;-85
2023/06/28 05:33:17;;;;;;;7.33;2.27;;;18.10;99.00;;;19.02;100.00;98344.97;4965107;28;20481;-86
2023/06/28 05:35:50;;;;;;;3.97;1.60;;;18.20;99.00;;;19.00;100.00;98341.72;4967999;28;20866;-85
2023/06/28 05:38:19;;;;;;;6.90;2.57;;;18.30;99.00;;;19.00;100.00;98339.06;4969403;28;20519;-86
2023/06/28 05:40:54;;;;;;;6.43;2.40;;;18.20;98.40;;;19.04;100.00;98340.22;4964925;28;20546;-86
2023/06/28 05:43:23;;;;;;;4.70;2.40;;;18.20;98.30;;;19.08;100.00;98341.38;4965636;28;20496;-87
2023/06/28 05:45:54;;;;;;;6.00;2.37;;;18.30;98.10;;;19.14;100.00;98336.97;4963606;28;21050;-86
2023/06/28 05:48:24;;;;;;;6.20;2.60;;;18.30;97.90;;;19.19;100.00;98332.59;4962125;28;20484;-86
2023/06/28 05:50:54;;;;;;;9.43;2.43;;;18.40;97.90;;;19.26;100.00;98335.09;4966388;28;20479;-86
2023/06/28 05:53:23;;;;;;;4.83;2.20;;;18.40;97.80;;;19.29;100.00;98330.13;4962242;28;20844;-85
2023/06/28 05:55:52;;;;;;;8.40;2.70;;;18.50;97.80;;;19.34;100.00;98334.72;4962629;28;21008;-86
2023/06/28 05:58:21;;;;;;;5.83;2.27;;;18.40;97.60;;;19.38;100.00;98331.38;4963810;28;20484;-85
2023/06/28 06:00:51;;;;;;;6.87;2.30;;;18.60;97.50;;;19.44;100.00;98338.41;4962509;28;20528;-86
2023/06/28 06:03:20;;;;;;;5.33;2.13;;;18.60;97.50;;;19.49;100.00;98349.13;4964083;28;20487;-85
2023/06/28 06:05:49;;;;;;;7.73;2.77;;;18.70;97.70;;;19.55;100.00;98350.00;4966231;28;20485;-86
2023/06/28 06:08:20;;;;;;;6.53;2.90;;;18.70;97.40;;;19.54;100.00;98351.84;4963729;28;20506;-86
2023/06/28 06:10:49;;;;;;;8.20;3.20;;;18.80;97.20;;;19.54;100.00;98348.41;4965504;28;20469;-85
2023/06/28 06:13:17;;;;;;;8.70;2.53;;;18.80;97.30;;;19.55;100.00;98345.50;4964783;28;20475;-86
2023/06/28 06:15:47;;;;;;;6.90;2.63;;;18.80;97.50;;;19.61;100.00;98342.97;4963577;28;20465;-86
2023/06/28 06:18:16;;;;;;;6.97;3.03;;;18.80;97.30;;;19.63;100.00;98340.88;4965329;28;20567;-86
2023/06/28 06:20:45;;;;;;;9.13;3.00;;;18.90;97.40;;;19.66;100.00;98345.69;4964147;28;20531;-86
2023/06/28 06:23:14;;;;;;;4.30;2.30;;;18.90;97.20;;;19.67;100.00;98348.13;4960857;28;20492;-86
2023/06/28 06:25:44;;;;;;;3.93;2.80;;;18.90;97.00;;;19.68;100.00;98343.63;4964387;28;20468;-86
2023/06/28 06:28:13;;;;;;;12.73;3.00;;;18.90;97.00;;;19.67;100.00;98342.81;4964369;28;20947;-85
2023/06/28 06:30:42;;;;;;;9.97;3.00;;;18.90;96.90;;;19.65;100.00;98350.19;4965747;28;20548;-86
2023/06/28 06:33:12;;;;;;;6.13;2.70;;;18.90;97.00;;;19.63;100.00;98354.13;4962260;28;20547;-86
2023/06/28 06:35:42;;;;;;;5.20;2.30;;;18.90;97.00;;;19.68;100.00;98354.25;4964781;28;20481;-86
2023/06/28 06:38:11;;;;;;;5.57;2.80;;;18.90;97.10;;;19.74;100.00;98347.97;4963554;28;20966;-85
2023/06/28 06:40:44;;;;;;;4.20;2.30;;;19.00;97.20;;;19.79;100.00;98350.72;4958706;28;20469;-86
2023/06/28 06:43:14;;;;;;;9.80;3.23;;;19.00;97.10;;;19.81;100.00;98348.63;4963154;28;20572;-85
2023/06/28 06:45:42;;;;;;;7.00;3.20;;;19.00;97.10;;;19.82;100.00;98351.03;4959290;28;20511;-86
2023/06/28 06:48:11;;;;;;;7.30;2.73;;;19.10;97.10;;;19.86;100.00;98351.38;4960457;28;20479;-85
2023/06/28 06:50:40;;;;;;;6.57;2.90;;;19.10;97.00;;;19.84;99.23;98364.09;4960794;28;20461;-85
2023/06/28 06:53:09;;;;;;;8.60;2.97;;;19.10;96.60;;;19.80;99.24;98354.97;4964697;28;20890;-86
2023/06/28 06:55:38;;;;;;;13.10;2.70;;;19.10;96.70;;;19.83;99.33;98362.47;4963535;28;21159;-86
2023/06/28 06:58:08;;;;;;;11.03;2.77;;;19.10;96.80;;;19.88;99.08;98365.22;4958597;28;20927;-86
2023/06/28 07:00:38;;;;;;;4.40;2.60;;;19.10;97.00;;;19.93;99.16;98363.44;4961383;28;20503;-85
2023/06/28 07:03:08;;;;;;;8.37;2.97;;;19.10;96.70;;;19.88;98.95;98362.56;4964034;28;20475;-84
2023/06/28 07:05:37;;;;;;;11.87;2.63;;;19.10;96.80;;;19.87;98.26;98372.38;4964013;28;20500;-86
2023/06/28 07:08:07;;;;;;;7.23;2.80;;;19.10;96.60;;;19.85;97.60;98371.81;4962612;28;20520;-86
2023/06/28 07:10:35;;;;;;;7.37;2.43;;;19.10;96.40;;;19.84;97.34;98369.41;4961225;28;20465;-85
2023/06/28 07:13:04;;;;;;;18.37;5.20;;;19.10;96.50;;;19.89;97.90;98372.13;4965618;28;20472;-86
2023/06/28 07:15:36;;;;;;;8.93;2.60;;;19.20;96.70;;;19.97;97.89;98369.09;4964687;28;20480;-86
2023/06/28 07:18:05;;;;;;;4.80;2.03;;;19.20;96.70;;;20.03;97.63;98368.94;4964504;28;20497;-86
2023/06/28 07:20:34;;;;;;;5.73;2.20;;;19.20;96.70;;;20.09;97.46;98369.84;4964146;28;20482;-86
2023/06/28 07:23:03;;;;;;;4.70;2.23;;;19.30;96.80;;;20.14;97.31;98367.25;4964359;28;20569;-86
2023/06/28 07:25:35;;;;;;;7.17;1.90;;;19.30;96.70;;;20.17;97.15;98374.75;4960300;28;20562;-85
2023/06/28 07:28:04;;;;;;;8.33;2.67;;;19.40;96.60;;;20.20;97.09;98363.63;4963523;28;21130;-86
2023/06/28 07:30:57;;;;;;;6.00;2.80;;;19.40;96.50;;;20.24;96.42;98358.66;4963123;28;20465;-86
2023/06/28 07:33:26;;;;;;;4.93;2.87;;;19.40;96.50;;;20.18;96.23;98349.81;4963062;28;20895;-85
2023/06/28 07:35:55;;;;;;;8.27;2.80;;;19.50;96.30;;;20.14;96.48;98353.97;4959421;28;20543;-86
2023/06/28 07:38:24;;;;;;;4.57;2.60;;;19.50;96.20;;;20.14;96.34;98353.97;4961316;28;20564;-86
2023/06/28 07:40:53;;;;;;;8.13;2.80;;;19.60;96.20;;;20.13;96.71;98347.09;4960443;28;20560;-86
2023/06/28 07:43:22;;;;;;;5.80;2.20;;;19.50;96.30;;;20.18;96.78;98351.66;4960655;28;20480;-85
2023/06/28 07:45:52;;;;;;;4.97;2.37;;;19.50;96.40;;;20.21;96.40;98338.69;4960544;28;20497;-85
2023/06/28 07:48:22;;;;;;;6.37;2.50;;;19.50;96.40;;;20.27;96.44;98348.38;4961283;28;20522;-86
2023/06/28 07:50:53;;;;;;;8.67;2.63;;;19.50;96.40;;;20.28;96.06;98349.19;4959743;28;20485;-86
2023/06/28 07:53:22;;;;;;;4.10;2.07;;;19.60;96.40;;;20.33;95.91;98351.94;4960952;28;20532;-86
2023/06/28 07:55:52;;;;;;;4.23;2.33;;;19.50;96.30;;;20.40;95.47;98341.97;4959236;28;20465;-86
2023/06/28 07:58:21;;;;;;;3.87;2.20;;;19.60;96.30;;;20.46;95.24;98339.13;4961211;28;20476;-86
2023/06/28 08:00:51;;;;;;;5.60;2.37;;;19.60;96.20;;;20.41;94.90;98343.56;4957712;28;20480;-86
2023/06/28 08:03:22;;;;;;;7.93;2.57;;;19.70;96.20;;;20.44;94.94;98349.19;4961141;28;21683;-86
2023/06/28 08:05:50;;;;;;;4.20;2.70;;;19.70;96.20;;;20.44;94.74;98349.19;4959940;28;21392;-86
2023/06/28 08:08:19;;;;;;;8.40;3.10;;;19.70;96.10;;;20.48;95.05;98349.50;4958704;28;20627;-85
2023/06/28 08:10:48;;;;;;;19.83;2.97;;;19.80;96.10;;;20.43;93.76;98344.94;4959026;28;20479;-86
2023/06/28 08:13:17;;;;;;;7.90;2.50;;;19.80;95.80;;;20.46;94.33;98347.09;4960304;28;20488;-85
2023/06/28 08:15:46;;;;;;;6.10;3.00;;;19.80;95.90;;;20.46;93.82;98354.25;4960859;28;20515;-86
2023/06/28 08:18:16;;;;;;;8.20;2.97;;;19.90;95.90;;;20.54;93.46;98352.00;4964657;28;20553;-86
2023/06/28 08:20:47;;;;;;;30.67;2.97;;;19.80;95.60;;;20.58;92.58;98355.78;4962115;28;20818;-86
2023/06/28 08:23:16;;;;;;;7.20;2.47;;;19.90;95.70;;;20.66;91.96;98354.56;4962949;28;20470;-86
2023/06/28 08:25:44;;;;;;;10.67;3.43;;;20.00;95.60;;;20.66;91.94;98356.41;4963013;28;20613;-86
2023/06/28 08:28:13;;;;;;;5.47;2.60;;;20.00;95.50;;;20.73;91.80;98355.19;4963184;28;21356;-86
2023/06/28 08:30:42;;;;;;;6.63;2.60;;;20.00;95.60;;;20.75;91.45;98358.44;4962245;28;20526;-86
2023/06/28 08:33:13;;;;;;;6.37;2.47;;;20.00;95.60;;;20.79;91.27;98345.47;4961353;28;20497;-86
2023/06/28 08:35:43;;;;;;;10.23;2.57;;;20.10;95.60;;;20.84;91.23;98333.03;4963108;28;20462;-86
2023/06/28 08:38:14;;;;;;;4.10;2.33;;;20.00;95.30;;;20.88;90.22;98333.34;4962977;28;20467;-88
2023/06/28 08:40:44;;;;;;;6.50;2.23;;;20.10;95.40;;;20.92;89.82;98329.13;4964520;28;20471;-85
2023/06/28 08:43:17;;;;;;;7.23;2.10;;;20.20;95.30;;;20.90;88.88;98331.22;4961640;28;20824;-85
2023/06/28 08:45:48;;;;;;;12.00;3.33;;;20.30;94.90;;;20.95;88.67;98339.28;4965805;28;20493;-86
2023/06/28 08:48:18;;;;;;;8.80;2.50;;;20.30;95.00;;;21.01;88.89;98341.75;4963317;28;20560;-85
2023/06/28 08:51:00;;;;;;;7.03;2.43;;;20.30;95.00;;;21.08;88.56;98333.59;4962301;28;20477;-85
2023/06/28 08:53:31;;;;;;;9.33;2.67;;;20.40;94.90;;;21.11;87.59;98333.13;4967243;28;20552;-86
2023/06/28 08:56:02;;;;;;;5.37;2.07;;;20.50;94.70;;;21.14;87.38;98329.19;4965015;28;20471;-85
2023/06/28 08:58:34;;;;;;;10.87;2.40;;;20.60;94.60;;;21.12;87.40;98332.09;4966018;28;20465;-86
2023/06/28 09:01:03;;;;;;;4.50;2.07;;;20.60;94.60;;;21.23;87.57;98333.81;4964144;28;20912;-86
2023/06/28 09:03:32;;;;;;;7.00;3.13;;;20.60;94.60;;;21.29;87.07;98340.81;4968165;28;20492;-86
2023/06/28 09:06:02;;;;;;;11.90;2.27;;;20.70;94.70;;;21.27;85.90;98342.91;4964786;28;21014;-85
2023/06/28 09:08:32;;;;;;;10.20;2.33;;;20.70;94.10;;;21.29;85.15;98340.81;4964207;28;20472;-85
2023/06/28 09:11:04;;;;;;;7.37;2.17;;;20.70;94.00;;;21.32;85.02;98340.31;4965895;28;20479;-86
2023/06/28 09:13:33;;;;;;;3.93;2.00;;;20.60;94.00;;;21.34;84.72;98338.22;4968001;28;20460;-85
2023/06/28 09:16:02;;;;;;;11.03;2.57;;;20.60;94.00;;;21.31;84.84;98333.38;4964199;28;20483;-86
2023/06/28 09:18:31;;;;;;;7.83;2.40;;;20.50;94.30;;;21.35;84.72;98339.81;4965552;28;20564;-86
2023/06/28 09:21:01;;;;;;;5.30;2.17;;;20.50;94.20;;;21.34;84.10;98338.22;4964215;28;20469;-85
2023/06/28 09:23:34;;;;;;;3.77;2.10;;;20.60;94.10;;;21.36;83.21;98341.41;4965854;28;20595;-86
2023/06/28 09:26:03;;;;;;;8.47;2.40;;;20.60;93.80;;;21.40;83.34;98336.41;4966658;28;20509;-86
2023/06/28 09:28:34;;;;;;;3.47;2.00;;;20.70;94.00;;;21.44;83.87;98346.31;4967117;28;20846;-85
2023/06/28 09:31:05;;;;;;;12.30;2.90;;;20.70;94.10;;;21.49;83.65;98345.53;4960648;28;20469;-86
2023/06/28 09:33:34;;;;;;;6.83;2.57;;;20.70;94.10;;;21.46;84.07;98336.22;4962889;28;20472;-86
2023/06/28 09:36:04;;;;;;;7.37;2.10;;;20.80;94.10;;;21.46;83.88;98327.41;4961551;28;20505;-86
2023/06/28 09:38:34;;;;;;;5.83;2.23;;;20.80;94.00;;;21.50;84.13;98329.34;4961522;28;20464;-85
2023/06/28 09:41:04;;;;;;;6.13;2.20;;;20.70;94.20;;;21.54;83.44;98327.78;4962935;28;20470;-86
2023/06/28 09:43:35;;;;;;;10.47;2.70;;;20.80;94.00;;;21.52;81.08;98329.88;4963021;28;20464;-85
2023/06/28 09:46:15;;;;;;;8.83;2.60;;;20.80;93.30;;;21.47;79.47;98326.38;4960919;28;20529;-86
2023/06/28 09:48:48;;;;;;;2.30;1.50;;;20.90;92.80;;;21.49;79.04;98332.22;4961518;28;20469;-85
2023/06/28 09:51:20;;;;;;;7.83;2.20;;;20.90;92.70;;;21.47;78.32;98340.47;4961011;28;20518;-85
2023/06/28 09:53:53;;;;;;;3.10;2.13;;;20.80;92.50;;;21.54;78.54;98334.97;4963323;28;20515;-86
2023/06/28 09:56:33;;;;;;;7.20;2.37;;;20.80;92.70;;;21.61;78.68;98332.91;4963707;28;20472;-85
2023/06/28 09:59:08;;;;;;;4.70;1.90;;;20.90;92.90;;;21.65;78.37;98333.22;4965836;28;21054;-85
2023/06/28 10:01:52;;;;;;;3.20;1.70;;;21.00;92.70;;;21.71;78.83;98333.00;4968683;28;20473;-86
2023/06/28 10:04:23;;;;;;;3.93;1.83;;;21.00;92.90;;;21.81;79.06;98342.94;4968254;28;20560;-85
2023/06/28 10:06:56;;;;;;;4.90;2.43;;;21.10;92.90;;;21.88;78.57;98340.88;4964200;28;21867;-85
2023/06/28 10:09:30;;;;;;;6.93;2.13;;;21.20;92.90;;;21.91;78.46;98337.75;4966377;28;20547;-86
2023/06/28 10:12:01;;;;;;;3.50;2.10;;;21.20;93.00;;;21.95;78.43;98334.34;4966256;28;21017;-85
2023/06/28 10:14:37;;;;;;;9.30;2.40;;;21.30;92.60;;;21.95;77.93;98341.53;4963401;28;20967;-85
2023/06/28 10:17:08;;;;;;;9.73;2.37;;;21.30;92.70;;;21.96;77.75;98335.16;4964848;28;20509;-86
2023/06/28 10:19:39;;;;;;;6.33;2.70;;;21.30;92.60;;;22.03;77.49;98325.09;4966348;28;20466;-85
2023/06/28 10:22:08;;;;;;;7.13;2.43;;;21.30;92.50;;;22.09;77.26;98329.38;4966006;28;20473;-86
2023/06/28 10:24:40;;;;;;;5.93;2.00;;;21.40;92.60;;;22.18;77.47;98332.41;4967938;28;20466;-85
2023/06/28 10:27:12;;;;;;;3.77;1.97;;;21.40;92.40;;;22.25;76.51;98327.66;4963032;28;20505;-85